Time;durP1;ratioP1;P1;durP2;ratioP2;P2;SDS_P1;SDS_P2;PMS_P1;PMS_P2;Temp;Humidity;BMP_temperature;BMP_pressure;BME280_temperature;BME280_humidity;BME280_pressure;Samples;Min_cycle;Max_cycle;Signal;HPM_P1;HPM_P2
2022/08/28 00:01:06;;;;;;;26.20;18.52;;;18.60;99.90;;;;;;5112891;27;20425;-65
2022/08/28 00:03:34;;;;;;;27.60;19.13;;;18.60;99.90;;;;;;5109526;28;20390;-65
2022/08/28 00:06:04;;;;;;;28.05;19.17;;;18.60;99.90;;;;;;5095776;28;20116;-65
2022/08/28 00:08:32;;;;;;;25.42;18.67;;;18.60;99.90;;;;;;5121791;27;20159;-65
2022/08/28 00:10:59;;;;;;;34.58;20.50;;;18.50;99.90;;;;;;5109087;28;20051;-65
2022/08/28 00:13:27;;;;;;;29.42;19.48;;;18.50;99.90;;;;;;5108788;28;20051;-65
2022/08/28 00:15:59;;;;;;;30.27;20.70;;;18.50;99.90;;;;;;5107583;28;20044;-64
2022/08/28 00:18:30;;;;;;;26.15;19.05;;;18.50;99.90;;;;;;5105387;28;20055;-64
2022/08/28 00:20:57;;;;;;;25.50;18.67;;;18.50;99.90;;;;;;5100307;28;20040;-64
2022/08/28 00:23:26;;;;;;;24.80;18.77;;;18.40;99.90;;;;;;5099337;27;20031;-64
2022/08/28 00:26:09;;;;;;;26.13;18.38;;;18.40;99.90;;;;;;5100091;27;20043;-65
2022/08/28 00:28:37;;;;;;;28.30;19.23;;;18.40;99.90;;;;;;5107357;27;20470;-64
2022/08/28 00:31:04;;;;;;;30.95;20.35;;;18.40;99.90;;;;;;5106603;27;20091;-65
2022/08/28 00:33:33;;;;;;;26.60;18.95;;;18.40;99.90;;;;;;5115898;27;20040;-66
2022/08/28 00:36:02;;;;;;;29.92;19.65;;;18.40;99.90;;;;;;5110996;27;20421;-65
2022/08/28 00:38:30;;;;;;;24.13;18.98;;;18.30;99.90;;;;;;5126657;27;20065;-65
2022/08/28 00:41:01;;;;;;;27.35;17.45;;;18.30;99.90;;;;;;5105984;28;20050;-65
2022/08/28 00:43:41;;;;;;;29.08;19.73;;;18.30;99.90;;;;;;5114209;27;20048;-65
2022/08/28 00:46:12;;;;;;;28.15;19.55;;;18.30;99.90;;;;;;5095252;27;20046;-65
2022/08/28 00:48:40;;;;;;;26.40;18.95;;;18.20;99.90;;;;;;5116896;28;20088;-65
2022/08/28 00:53:56;;;;;;;25.83;19.30;;;18.20;99.90;;;;;;5108194;28;20040;-65
2022/08/28 00:56:26;;;;;;;28.98;20.35;;;18.10;99.90;;;;;;5128291;28;20497;-64
2022/08/28 00:58:55;;;;;;;26.40;19.88;;;18.10;99.90;;;;;;5127692;27;20043;-64
2022/08/28 01:01:23;;;;;;;35.00;21.10;;;18.10;99.90;;;;;;5124121;28;20489;-64
2022/08/28 01:03:50;;;;;;;25.77;19.95;;;18.10;99.90;;;;;;5108327;28;20050;-64
2022/08/28 01:06:20;;;;;;;28.65;20.23;;;18.00;99.90;;;;;;5099027;28;20050;-65
2022/08/28 01:08:49;;;;;;;32.78;20.75;;;18.10;99.90;;;;;;5108694;28;20036;-64
2022/08/28 01:11:18;;;;;;;28.67;19.98;;;18.00;99.90;;;;;;5110058;28;20043;-66
2022/08/28 01:13:47;;;;;;;29.17;19.60;;;18.00;99.90;;;;;;5120407;28;20050;-64
2022/08/28 01:16:16;;;;;;;28.75;20.80;;;18.00;99.90;;;;;;5108554;28;20089;-64
2022/08/28 01:18:45;;;;;;;29.02;21.23;;;18.00;99.90;;;;;;5115662;28;20127;-64
2022/08/28 01:21:26;;;;;;;28.75;20.85;;;17.90;99.90;;;;;;5100333;28;20043;-65
2022/08/28 01:23:58;;;;;;;27.38;19.90;;;17.90;99.90;;;;;;5097380;27;20126;-65
2022/08/28 01:26:28;;;;;;;28.42;20.15;;;17.90;99.90;;;;;;5096830;28;20055;-65
2022/08/28 01:28:57;;;;;;;31.23;21.55;;;17.90;99.90;;;;;;5104233;28;20043;-65
2022/08/28 01:31:27;;;;;;;27.65;18.67;;;17.90;99.90;;;;;;5112956;28;20055;-65
2022/08/28 01:33:55;;;;;;;26.02;20.40;;;17.90;99.90;;;;;;5111339;28;20047;-64
2022/08/28 01:36:23;;;;;;;27.55;20.25;;;17.90;99.90;;;;;;5106671;28;20520;-64
2022/08/28 01:39:05;;;;;;;25.98;19.30;;;17.90;99.90;;;;;;5107996;28;20130;-65
2022/08/28 01:41:34;;;;;;;;;;;17.90;99.90;;;;;;5101517;28;20052;-64
2022/08/28 01:44:01;;;;;;;26.80;20.00;;;17.80;99.90;;;;;;5109733;28;20427;-64
2022/08/28 01:46:30;;;;;;;24.48;18.77;;;17.80;99.90;;;;;;5113585;27;20568;-65
2022/08/28 01:48:58;;;;;;;31.27;20.50;;;17.90;99.90;;;;;;5102265;28;20127;-65
2022/08/28 01:51:26;;;;;;;26.98;18.20;;;17.90;99.90;;;;;;5118804;27;20520;-65
2022/08/28 01:54:01;;;;;;;28.20;19.13;;;17.90;99.90;;;;;;5108109;28;20083;-65
2022/08/28 01:56:28;;;;;;;25.60;18.67;;;17.90;99.90;;;;;;5097334;27;20595;-65
2022/08/28 01:58:56;;;;;;;27.48;18.23;;;17.80;99.90;;;;;;5118886;27;20038;-65
2022/08/28 02:01:23;;;;;;;21.05;17.25;;;17.80;99.90;;;;;;5126797;27;20122;-64
2022/08/28 02:03:51;;;;;;;28.33;18.77;;;17.80;99.90;;;;;;5127420;27;20269;-64
2022/08/28 02:06:19;;;;;;;26.77;20.27;;;17.80;99.90;;;;;;5102957;27;20043;-65
2022/08/28 02:08:48;;;;;;;26.45;19.13;;;17.80;99.90;;;;;;5108544;27;20134;-65
2022/08/28 02:11:16;;;;;;;27.08;19.15;;;17.80;99.90;;;;;;5114597;27;20039;-64
2022/08/28 02:13:43;;;;;;;26.05;18.92;;;17.80;99.90;;;;;;5122604;27;20055;-64
2022/08/28 02:16:11;;;;;;;24.48;18.77;;;17.80;99.90;;;;;;5120153;27;20426;-64
2022/08/28 02:18:39;;;;;;;26.13;19.42;;;17.80;99.90;;;;;;5129462;27;20512;-66
2022/08/28 02:21:07;;;;;;;26.23;19.35;;;17.80;99.90;;;;;;5120881;27;20154;-64
2022/08/28 02:23:38;;;;;;;26.67;19.27;;;17.70;99.90;;;;;;5111925;27;20042;-64
2022/08/28 02:26:06;;;;;;;26.33;20.47;;;17.70;99.90;;;;;;5116583;27;20036;-65
2022/08/28 02:28:35;;;;;;;30.92;20.58;;;17.70;99.90;;;;;;5109114;27;20035;-65
2022/08/28 02:31:04;;;;;;;29.42;20.48;;;17.70;99.90;;;;;;5120722;27;20055;-65
2022/08/28 02:33:32;;;;;;;32.30;21.10;;;17.70;99.90;;;;;;5104461;27;20573;-65
2022/08/28 02:35:59;;;;;;;31.27;20.63;;;17.70;99.90;;;;;;5119905;27;20047;-65
2022/08/28 02:38:28;;;;;;;28.60;19.73;;;17.60;99.90;;;;;;5116716;27;20040;-65
2022/08/28 02:40:57;;;;;;;29.35;19.90;;;17.60;99.90;;;;;;5113463;27;20566;-64
2022/08/28 02:43:24;;;;;;;30.88;20.80;;;17.60;99.90;;;;;;5121750;27;20039;-65
2022/08/28 02:45:51;;;;;;;25.88;20.60;;;17.60;99.90;;;;;;5117878;27;20044;-65
2022/08/28 02:48:18;;;;;;;28.40;19.40;;;17.60;99.90;;;;;;5108597;27;20051;-64
2022/08/28 02:50:46;;;;;;;26.38;20.80;;;17.60;99.90;;;;;;5122256;27;20428;-64
2022/08/28 02:53:13;;;;;;;24.27;18.58;;;17.60;99.90;;;;;;5123209;27;20588;-65
2022/08/28 02:55:41;;;;;;;31.92;19.90;;;17.60;99.90;;;;;;5114119;27;20036;-64
2022/08/28 02:58:08;;;;;;;27.67;20.13;;;17.60;99.90;;;;;;5124972;27;20501;-65
2022/08/28 03:00:35;;;;;;;28.73;19.52;;;17.60;99.90;;;;;;5123524;27;20516;-64
2022/08/28 03:03:03;;;;;;;26.52;19.27;;;17.60;99.90;;;;;;5116110;27;20039;-64
2022/08/28 03:05:30;;;;;;;26.08;20.00;;;17.60;99.90;;;;;;5106471;27;20125;-65
2022/08/28 03:07:58;;;;;;;31.42;19.67;;;17.60;99.90;;;;;;5115537;27;20036;-64
2022/08/28 03:10:25;;;;;;;27.48;19.15;;;17.60;99.90;;;;;;5098240;28;20047;-67
2022/08/28 03:12:52;;;;;;;28.58;19.38;;;17.60;99.90;;;;;;5122906;27;20501;-65
2022/08/28 03:15:20;;;;;;;28.92;19.10;;;17.60;99.90;;;;;;5128526;27;20045;-65
2022/08/28 03:17:47;;;;;;;29.45;19.92;;;17.60;99.90;;;;;;5120831;27;20130;-64
2022/08/28 03:20:17;;;;;;;28.15;19.77;;;17.60;99.90;;;;;;5107016;27;20576;-65
2022/08/28 03:25:30;;;;;;;22.80;18.33;;;17.50;99.90;;;;;;5099877;27;20055;-65
2022/08/28 03:27:57;;;;;;;29.05;20.30;;;17.50;99.90;;;;;;5112005;27;20043;-64
2022/08/28 03:30:25;;;;;;;29.10;20.15;;;17.50;99.90;;;;;;5118288;27;20392;-65
2022/08/28 03:32:52;;;;;;;33.13;19.75;;;17.50;99.90;;;;;;5121469;27;20052;-64
2022/08/28 03:35:20;;;;;;;25.58;19.95;;;17.50;99.90;;;;;;5109612;28;20071;-64
2022/08/28 03:37:48;;;;;;;29.58;20.65;;;17.50;99.90;;;;;;5114857;27;20581;-64
2022/08/28 03:40:15;;;;;;;29.92;21.00;;;17.50;99.90;;;;;;5103052;27;20044;-65
2022/08/28 03:42:42;;;;;;;27.55;19.92;;;17.50;99.90;;;;;;5120389;27;20050;-65
2022/08/28 03:45:20;;;;;;;24.98;18.92;;;17.50;99.90;;;;;;5126174;27;20043;-64
2022/08/28 03:47:48;;;;;;;31.15;20.65;;;17.50;99.90;;;;;;5127315;27;20495;-65
2022/08/28 03:50:17;;;;;;;26.98;20.17;;;17.50;99.90;;;;;;5114458;27;20048;-65
2022/08/28 03:52:46;;;;;;;28.02;19.85;;;17.40;99.90;;;;;;5107873;27;20047;-65
2022/08/28 03:55:14;;;;;;;29.70;20.52;;;17.40;99.90;;;;;;5109489;27;20084;-65
2022/08/28 03:57:41;;;;;;;31.70;20.50;;;17.40;99.90;;;;;;5113010;27;20490;-65
2022/08/28 04:00:12;;;;;;;29.52;20.27;;;17.40;99.90;;;;;;5119205;27;20416;-65
2022/08/28 04:02:40;;;;;;;26.02;20.30;;;17.40;99.90;;;;;;5115437;27;20040;-64
2022/08/28 04:05:11;;;;;;;27.80;19.15;;;17.40;99.90;;;;;;5095831;27;20044;-65
2022/08/28 04:07:39;;;;;;;30.63;20.43;;;17.40;99.90;;;;;;5089626;27;20105;-65
2022/08/28 04:10:07;;;;;;;28.60;20.65;;;17.40;99.90;;;;;;5112714;27;20122;-65
2022/08/28 04:12:35;;;;;;;26.02;20.13;;;17.40;99.90;;;;;;5101298;27;20042;-65
2022/08/28 04:15:03;;;;;;;25.58;19.45;;;17.40;99.90;;;;;;5119906;27;20062;-65
2022/08/28 04:17:33;;;;;;;26.30;19.67;;;17.40;99.90;;;;;;5121918;27;20092;-65
2022/08/28 04:20:00;;;;;;;27.50;20.17;;;17.40;99.90;;;;;;5096146;27;20116;-64
2022/08/28 04:22:29;;;;;;;29.10;20.20;;;17.40;99.90;;;;;;5107274;27;20062;-64
2022/08/28 04:24:56;;;;;;;28.13;19.85;;;17.40;99.90;;;;;;5093480;27;20056;-66
2022/08/28 04:27:24;;;;;;;32.08;21.25;;;17.40;99.90;;;;;;5100070;27;20104;-64
2022/08/28 04:29:51;;;;;;;28.08;21.55;;;17.40;99.90;;;;;;5108044;27;20054;-64
2022/08/28 04:32:18;;;;;;;27.70;18.83;;;17.40;99.90;;;;;;5111114;27;20062;-64
2022/08/28 04:34:46;;;;;;;26.77;19.38;;;17.40;99.90;;;;;;5117897;27;20090;-64
2022/08/28 04:37:14;;;;;;;23.33;18.40;;;17.50;99.90;;;;;;5105673;27;20044;-64
2022/08/28 04:39:42;;;;;;;29.20;20.95;;;17.50;99.90;;;;;;5115885;27;20044;-64
2022/08/28 04:42:09;;;;;;;24.13;19.30;;;17.50;99.90;;;;;;5096417;28;20047;-64
2022/08/28 04:44:37;;;;;;;25.52;19.25;;;17.50;99.90;;;;;;5110921;27;20490;-65
2022/08/28 04:47:04;;;;;;;25.48;18.85;;;17.60;99.90;;;;;;5099288;28;20040;-64
2022/08/28 04:49:32;;;;;;;25.65;19.35;;;17.60;99.90;;;;;;5111685;27;20591;-64
2022/08/28 04:51:59;;;;;;;24.17;18.20;;;17.60;99.90;;;;;;5100867;28;20036;-64
2022/08/28 04:54:27;;;;;;;25.50;18.85;;;17.60;99.90;;;;;;5117770;28;20454;-65
2022/08/28 04:56:54;;;;;;;25.13;19.77;;;17.60;99.90;;;;;;5093571;28;20074;-64
2022/08/28 04:59:22;;;;;;;24.83;18.10;;;17.60;99.90;;;;;;5113790;28;20083;-65
2022/08/28 05:01:50;;;;;;;21.27;17.90;;;17.70;99.90;;;;;;5118963;27;20129;-64
2022/08/28 05:04:18;;;;;;;26.75;19.38;;;17.70;99.90;;;;;;5113026;28;20506;-65
2022/08/28 05:06:46;;;;;;;28.48;20.30;;;17.70;99.90;;;;;;5105511;28;20054;-65
2022/08/28 05:09:17;;;;;;;26.65;19.08;;;17.70;99.90;;;;;;5119135;27;20039;-65
2022/08/28 05:11:46;;;;;;;23.75;17.40;;;17.80;99.90;;;;;;5121762;27;20043;-65
2022/08/28 05:14:14;;;;;;;31.25;18.25;;;17.80;99.90;;;;;;5126694;28;20486;-65
2022/08/28 05:16:47;;;;;;;28.13;17.85;;;17.80;99.90;;;;;;5114598;28;20537;-65
2022/08/28 05:19:17;;;;;;;25.33;16.90;;;17.80;99.90;;;;;;5105676;28;20044;-65
2022/08/28 05:21:45;;;;;;;23.27;17.10;;;17.90;99.90;;;;;;5117952;28;20470;-65
2022/08/28 05:24:13;;;;;;;22.98;17.40;;;17.80;99.90;;;;;;5106557;28;20120;-65
2022/08/28 05:26:40;;;;;;;26.17;17.63;;;17.80;99.90;;;;;;5114611;27;20048;-65
2022/08/28 05:29:09;;;;;;;21.30;16.50;;;17.90;99.90;;;;;;5122265;27;20133;-66
2022/08/28 05:31:39;;;;;;;27.08;18.83;;;17.90;99.90;;;;;;5125369;27;20099;-65
2022/08/28 05:34:06;;;;;;;21.48;17.27;;;17.90;99.90;;;;;;5110678;28;20397;-65
2022/08/28 05:36:36;;;;;;;21.63;16.08;;;18.00;99.90;;;;;;5112272;27;20385;-65
2022/08/28 05:39:07;;;;;;;25.42;17.55;;;18.00;99.90;;;;;;5120004;27;20131;-65
2022/08/28 05:41:36;;;;;;;25.92;17.23;;;18.00;99.90;;;;;;5114994;27;20044;-65
2022/08/28 05:44:08;;;;;;;21.15;15.95;;;18.00;99.90;;;;;;5109527;27;20074;-65
2022/08/28 05:46:38;;;;;;;21.77;16.73;;;18.00;99.90;;;;;;5116205;27;20044;-65
2022/08/28 05:49:07;;;;;;;21.77;16.42;;;18.10;99.90;;;;;;5108573;27;20471;-65
2022/08/28 05:51:39;;;;;;;22.08;17.45;;;18.10;99.90;;;;;;5101041;27;20367;-65
2022/08/28 05:54:07;;;;;;;27.88;17.80;;;18.10;99.90;;;;;;5112878;27;20051;-65
2022/08/28 05:56:37;;;;;;;22.13;16.08;;;18.20;99.90;;;;;;5111739;27;20040;-65
2022/08/28 05:59:06;;;;;;;21.77;15.05;;;18.30;99.90;;;;;;5109019;27;20063;-65
2022/08/28 06:01:38;;;;;;;22.33;15.50;;;18.30;99.90;;;;;;5114386;27;20235;-65
2022/08/28 06:04:16;;;;;;;20.83;16.55;;;18.30;99.90;;;;;;5108266;27;20074;-65
2022/08/28 06:06:44;;;;;;;26.70;17.27;;;18.30;99.90;;;;;;5105930;27;20061;-65
2022/08/28 06:09:15;;;;;;;23.48;16.30;;;18.40;99.90;;;;;;5127463;27;20096;-65
2022/08/28 06:11:43;;;;;;;21.08;15.73;;;18.40;99.90;;;;;;5127809;27;20485;-65
2022/08/28 06:14:15;;;;;;;19.85;15.80;;;18.40;99.90;;;;;;5104894;27;20050;-64
2022/08/28 06:16:51;;;;;;;24.77;15.45;;;18.40;99.90;;;;;;5112167;27;20496;-65
2022/08/28 06:19:21;;;;;;;23.55;14.82;;;18.50;99.90;;;;;;5105301;27;20048;-65
2022/08/28 06:21:52;;;;;;;25.63;15.82;;;18.50;99.90;;;;;;5113634;27;20148;-64
2022/08/28 06:24:20;;;;;;;20.90;15.57;;;18.60;99.90;;;;;;5107293;27;20119;-64
2022/08/28 06:26:47;;;;;;;21.98;15.25;;;18.60;99.90;;;;;;5106641;27;20462;-64
2022/08/28 06:29:17;;;;;;;21.85;15.38;;;18.60;99.90;;;;;;5092771;28;20310;-64
2022/08/28 06:31:58;;;;;;;18.80;14.45;;;18.60;99.90;;;;;;5106395;27;20050;-66
2022/08/28 06:34:26;;;;;;;21.88;14.65;;;18.60;99.90;;;;;;5097016;28;20048;-65
2022/08/28 06:36:53;;;;;;;20.13;14.20;;;18.60;99.90;;;;;;5109021;28;20528;-64
2022/08/28 06:39:22;;;;;;;23.38;15.10;;;18.70;99.90;;;;;;5115782;27;20039;-65
2022/08/28 06:41:49;;;;;;;23.35;14.68;;;18.70;99.90;;;;;;5103057;28;20044;-65
2022/08/28 06:44:18;;;;;;;19.08;14.02;;;18.60;99.90;;;;;;5125710;27;20509;-65
2022/08/28 06:46:51;;;;;;;21.13;14.85;;;18.70;99.90;;;;;;5123635;27;20100;-65
2022/08/28 06:49:19;;;;;;;18.77;13.63;;;18.70;99.90;;;;;;5118942;27;20039;-65
2022/08/28 06:51:46;;;;;;;21.38;14.43;;;18.70;99.90;;;;;;5101477;27;20048;-64
2022/08/28 06:54:16;;;;;;;23.75;15.23;;;18.70;99.90;;;;;;5097388;27;20054;-64
2022/08/28 06:56:49;;;;;;;22.23;13.93;;;18.80;99.90;;;;;;5090186;27;20059;-65
2022/08/28 06:59:16;;;;;;;17.42;12.95;;;18.90;99.90;;;;;;5103554;27;20089;-67
2022/08/28 07:01:43;;;;;;;21.95;13.30;;;18.90;99.90;;;;;;5122677;27;20544;-69
2022/08/28 07:04:13;;;;;;;20.00;13.93;;;19.10;99.90;;;;;;5120428;27;20444;-65
2022/08/28 07:06:44;;;;;;;16.95;12.75;;;19.10;99.90;;;;;;5102486;27;20458;-66
2022/08/28 07:09:14;;;;;;;19.67;13.02;;;19.30;99.90;;;;;;5129908;27;20047;-65
2022/08/28 07:11:45;;;;;;;19.05;12.60;;;19.40;99.90;;;;;;5124909;27;20498;-66
2022/08/28 07:14:12;;;;;;;18.33;11.23;;;19.50;99.90;;;;;;5099523;27;20047;-65
2022/08/28 07:16:40;;;;;;;18.60;11.85;;;19.70;99.90;;;;;;5112572;27;20047;-66
2022/08/28 07:19:10;;;;;;;19.40;11.73;;;19.70;99.90;;;;;;5105821;27;20131;-65
2022/08/28 07:21:42;;;;;;;17.40;10.70;;;19.70;99.90;;;;;;5113180;27;20466;-65
2022/08/28 07:24:13;;;;;;;17.27;10.65;;;19.80;99.90;;;;;;5096697;27;20047;-65
2022/08/28 07:26:42;;;;;;;18.83;10.48;;;20.00;99.90;;;;;;5107741;27;20586;-66
2022/08/28 07:29:10;;;;;;;18.77;11.70;;;20.10;99.90;;;;;;5097264;27;20430;-66
2022/08/28 07:31:44;;;;;;;13.43;10.55;;;20.10;99.90;;;;;;5103887;27;20790;-65
2022/08/28 07:34:14;;;;;;;15.60;9.07;;;20.20;99.90;;;;;;5113107;27;20473;-65
2022/08/28 07:36:43;;;;;;;15.73;10.23;;;20.30;99.90;;;;;;5119650;27;20046;-65
2022/08/28 07:39:13;;;;;;;19.65;11.02;;;20.40;99.90;;;;;;5122920;27;20107;-64
2022/08/28 07:41:41;;;;;;;20.83;9.75;;;20.40;99.90;;;;;;5119358;27;20122;-65
2022/08/28 07:47:02;;;;;;;15.88;10.70;;;20.20;99.90;;;;;;5123751;27;20155;-64
2022/08/28 07:49:32;;;;;;;13.77;9.90;;;20.30;99.90;;;;;;5123333;27;20097;-65
2022/08/28 07:52:00;;;;;;;12.98;9.13;;;20.40;99.90;;;;;;5122541;27;20135;-65
2022/08/28 07:54:28;;;;;;;18.08;10.60;;;20.50;99.90;;;;;;5120111;27;20123;-65
2022/08/28 07:56:55;;;;;;;20.20;9.85;;;20.60;99.90;;;;;;5123855;27;20085;-65
2022/08/28 07:59:23;;;;;;;16.20;9.50;;;20.60;99.90;;;;;;5121004;27;20059;-65
2022/08/28 08:01:50;;;;;;;14.15;8.55;;;20.70;99.90;;;;;;5121418;27;20536;-65
2022/08/28 08:04:20;;;;;;;14.05;9.65;;;20.80;99.90;;;;;;5120429;27;20046;-65
2022/08/28 08:06:47;;;;;;;16.85;8.88;;;20.80;99.90;;;;;;5110188;27;20049;-64
2022/08/28 08:09:19;;;;;;;11.80;8.32;;;20.80;99.90;;;;;;5112381;27;20047;-68
2022/08/28 08:11:48;;;;;;;16.02;9.23;;;20.80;99.90;;;;;;5100641;27;20036;-67
2022/08/28 08:14:18;;;;;;;15.88;10.13;;;20.50;99.90;;;;;;5100743;28;20162;-68
2022/08/28 08:16:46;;;;;;;19.08;9.70;;;20.40;99.90;;;;;;5100335;27;20043;-68
2022/08/28 08:19:15;;;;;;;14.27;8.80;;;20.40;99.90;;;;;;5091103;27;20429;-67
2022/08/28 08:21:45;;;;;;;13.80;8.75;;;20.50;99.90;;;;;;5114457;27;20058;-67
2022/08/28 08:24:19;;;;;;;15.70;8.50;;;20.60;99.90;;;;;;5123505;27;20054;-67
2022/08/28 08:26:50;;;;;;;15.05;9.23;;;20.80;99.90;;;;;;5122328;27;20066;-68
2022/08/28 08:29:28;;;;;;;15.35;8.50;;;20.90;99.90;;;;;;5101233;27;20535;-67
2022/08/28 08:32:03;;;;;;;13.57;8.38;;;21.20;99.90;;;;;;5126647;27;20515;-67
2022/08/28 08:34:35;;;;;;;14.20;7.72;;;21.50;99.90;;;;;;5094484;28;20044;-67
2022/08/28 08:37:04;;;;;;;12.82;7.93;;;21.80;99.90;;;;;;5108615;27;20040;-68
2022/08/28 08:39:33;;;;;;;15.80;8.20;;;22.30;99.90;;;;;;5103650;27;20099;-67
2022/08/28 08:42:05;;;;;;;12.52;8.27;;;22.20;99.90;;;;;;5090274;28;20059;-67
2022/08/28 08:44:39;;;;;;;12.98;8.27;;;22.40;99.90;;;;;;5089454;28;20044;-67
2022/08/28 08:47:23;;;;;;;11.68;7.78;;;22.60;99.90;;;;;;5101864;28;20044;-67
2022/08/28 08:49:56;;;;;;;11.43;8.02;;;22.70;99.90;;;;;;5093026;28;20036;-68
2022/08/28 08:52:37;;;;;;;12.73;7.07;;;23.00;99.90;;;;;;5101568;27;20494;-68
2022/08/28 08:55:33;;;;;;;12.85;7.65;;;23.30;99.90;;;;;;5089083;28;20123;-69
2022/08/28 08:58:12;;;;;;;14.45;7.50;;;23.40;99.90;;;;;;5092202;28;20046;-68
2022/08/28 09:00:51;;;;;;;11.82;7.53;;;23.90;99.90;;;;;;5100586;28;20093;-69
2022/08/28 09:03:24;;;;;;;10.23;6.32;;;24.00;99.90;;;;;;5097903;27;20475;-70
2022/08/28 09:05:56;;;;;;;9.70;6.90;;;24.10;99.90;;;;;;5093849;28;20039;-70
2022/08/28 09:08:39;;;;;;;14.10;7.18;;;24.50;99.90;;;;;;5103947;27;20190;-68
2022/08/28 09:11:15;;;;;;;11.63;7.07;;;24.60;99.90;;;;;;5101880;27;20494;-68
2022/08/28 09:13:55;;;;;;;11.85;7.55;;;24.80;99.90;;;;;;5098430;27;20412;-67
2022/08/28 09:16:29;;;;;;;13.32;7.60;;;24.90;99.90;;;;;;5101210;27;20501;-68
2022/08/28 09:18:57;;;;;;;14.70;7.78;;;25.00;99.90;;;;;;5093572;27;20144;-69
2022/08/28 09:21:29;;;;;;;13.95;7.45;;;24.90;99.90;;;;;;5094844;27;20079;-68
2022/08/28 09:24:01;;;;;;;10.60;6.93;;;24.70;99.90;;;;;;5105641;27;21271;-70
2022/08/28 09:26:33;;;;;;;12.23;8.02;;;24.70;99.90;;;;;;5095949;27;20044;-69
2022/08/28 09:29:04;;;;;;;11.02;6.65;;;24.70;99.90;;;;;;5096526;27;20052;-70
2022/08/28 09:31:41;;;;;;;9.77;7.00;;;24.90;99.90;;;;;;5100973;27;20105;-72
2022/08/28 09:34:33;;;;;;;8.73;6.45;;;24.90;99.90;;;;;;5112600;27;20039;-71
2022/08/28 09:37:07;;;;;;;11.50;7.43;;;25.40;99.90;;;;;;5099289;27;20057;-71
2022/08/28 09:39:40;;;;;;;11.45;7.00;;;25.80;99.90;;;;;;5127961;27;20459;-72
2022/08/28 09:45:19;;;;;;;9.32;6.55;;;26.30;99.90;;;;;;5111785;27;20440;-69
2022/08/28 09:47:49;;;;;;;8.80;6.60;;;26.20;99.90;;;;;;5101363;27;20554;-71
2022/08/28 09:50:22;;;;;;;9.45;7.00;;;26.20;99.90;;;;;;5082132;28;20063;-70
2022/08/28 09:52:52;;;;;;;9.15;6.53;;;26.10;99.90;;;;;;5116149;27;20125;-70
2022/08/28 09:55:23;;;;;;;11.05;6.57;;;26.00;99.90;;;;;;5123227;27;20054;-71
2022/08/28 09:57:53;;;;;;;9.20;6.40;;;26.00;99.90;;;;;;5100118;27;20067;-70
2022/08/28 10:00:21;;;;;;;9.45;7.03;;;25.90;99.90;;;;;;5103916;27;20071;-71
2022/08/28 10:03:01;;;;;;;10.10;6.90;;;25.90;99.90;;;;;;5107110;27;20039;-70
2022/08/28 10:05:43;;;;;;;10.48;6.70;;;25.80;99.90;;;;;;5075277;28;20514;-73
2022/08/28 10:08:40;;;;;;;10.23;7.18;;;25.70;99.90;;;;;;5103207;27;20048;-70
2022/08/28 10:11:50;;;;;;;16.55;7.45;;;25.70;99.90;;;;;;5107650;28;20048;-71
2022/08/28 10:14:37;;;;;;;11.82;7.30;;;25.50;99.90;;;;;;5087902;27;20059;-70
2022/08/28 10:17:31;;;;;;;11.80;7.28;;;25.50;99.90;;;;;;5092317;27;20111;-71
2022/08/28 10:20:10;;;;;;;10.77;7.10;;;25.40;99.90;;;;;;5085335;27;20560;-70
2022/08/28 10:22:50;;;;;;;10.55;7.13;;;25.50;99.90;;;;;;5095430;28;20051;-71
2022/08/28 10:25:22;;;;;;;11.23;7.45;;;25.50;99.90;;;;;;5114936;27;20046;-71
2022/08/28 10:28:13;;;;;;;11.48;7.40;;;25.40;99.90;;;;;;5109829;27;20058;-71
2022/08/28 10:31:04;;;;;;;9.15;6.50;;;25.50;99.90;;;;;;5103229;27;20766;-71
2022/08/28 10:34:20;;;;;;;10.55;7.20;;;25.90;99.90;;;;;;5104499;28;20497;-72
2022/08/28 10:37:09;;;;;;;9.75;6.90;;;26.10;99.90;;;;;;5091335;27;20731;-71
2022/08/28 10:39:44;;;;;;;10.45;6.93;;;26.50;99.90;;;;;;5101819;27;20130;-72
2022/08/28 10:42:17;;;;;;;9.52;6.82;;;26.90;99.90;;;;;;5125512;27;20054;-72
2022/08/28 10:45:17;;;;;;;10.35;6.65;;;26.80;99.90;;;;;;5119110;27;20043;-71
2022/08/28 10:47:50;;;;;;;10.05;6.25;;;27.00;99.90;;;;;;5115661;27;20089;-71
2022/08/28 10:50:37;;;;;;;11.98;7.35;;;27.40;99.90;;;;;;5090671;28;20580;-71
2022/08/28 10:53:28;;;;;;;10.27;7.18;;;27.40;99.90;;;;;;5120463;27;20051;-71
2022/08/28 10:56:01;;;;;;;11.30;7.10;;;27.50;99.90;;;;;;5109725;27;20577;-72
2022/08/28 10:58:31;;;;;;;11.82;7.05;;;27.50;99.90;;;;;;5130028;27;20039;-72
2022/08/28 11:01:06;;;;;;;13.27;7.78;;;27.60;99.90;;;;;;5126498;27;20153;-72
2022/08/28 11:03:48;;;;;;;10.38;7.00;;;27.30;99.90;;;;;;5117714;27;20141;-73
2022/08/28 11:06:43;;;;;;;10.38;7.10;;;27.00;99.90;;;;;;5084223;27;20130;-71
2022/08/28 11:09:26;;;;;;;10.15;7.45;;;26.80;99.90;;;;;;5103301;27;20086;-71
2022/08/28 11:12:01;;;;;;;9.35;6.97;;;26.70;99.90;;;;;;5096222;27;20540;-71
2022/08/28 11:14:36;;;;;;;8.02;6.90;;;26.40;99.90;;;;;;5097672;28;20039;-71
2022/08/28 11:17:26;;;;;;;10.25;7.30;;;26.20;99.90;;;;;;5112143;27;20042;-71
2022/08/28 11:20:06;;;;;;;15.00;7.05;;;25.90;99.90;;;;;;5116808;27;20154;-71
2022/08/28 11:22:59;;;;;;;12.45;7.57;;;26.10;99.90;;;;;;5104373;27;20093;-72
2022/08/28 11:25:42;;;;;;;9.60;6.60;;;26.10;99.90;;;;;;5098691;28;20076;-72
2022/08/28 11:28:14;;;;;;;11.32;6.95;;;26.00;99.90;;;;;;5104753;27;20074;-72
2022/08/28 11:30:44;;;;;;;10.27;7.00;;;26.50;99.90;;;;;;5098630;28;20574;-73
2022/08/28 11:33:46;;;;;;;7.93;6.77;;;26.50;99.90;;;;;;5091184;27;20482;-72
2022/08/28 11:36:22;;;;;;;8.63;6.72;;;26.50;99.90;;;;;;5092104;28;20538;-72
2022/08/28 11:38:50;;;;;;;13.52;7.13;;;26.70;99.90;;;;;;5094618;27;20561;-72
2022/08/28 11:41:31;;;;;;;9.25;7.13;;;26.60;99.90;;;;;;5094254;27;20075;-72
2022/08/28 11:44:08;;;;;;;9.32;7.32;;;26.60;99.90;;;;;;5096218;27;20044;-72
2022/08/28 11:46:38;;;;;;;7.95;6.85;;;26.60;99.90;;;;;;5121097;27;20158;-73
2022/08/28 11:49:27;;;;;;;11.10;7.03;;;26.60;99.90;;;;;;5116442;27;20036;-73
2022/08/28 11:52:04;;;;;;;10.18;7.13;;;27.40;99.90;;;;;;5117864;27;20071;-73
2022/08/28 11:54:57;;;;;;;10.23;6.97;;;28.00;99.90;;;;;;5111244;27;20358;-73
2022/08/28 11:57:51;;;;;;;10.52;7.15;;;28.10;99.90;;;;;;5092975;27;20032;-71
2022/08/28 12:00:36;;;;;;;8.65;6.50;;;28.20;99.90;;;;;;5110072;27;20606;-73
2022/08/28 12:03:14;;;;;;;13.73;7.32;;;27.70;99.90;;;;;;5116777;27;20041;-73
2022/08/28 12:05:48;;;;;;;8.50;7.28;;;27.40;99.90;;;;;;5087347;28;20508;-72
2022/08/28 12:08:43;;;;;;;8.75;6.80;;;26.80;99.90;;;;;;5125391;27;20260;-73
2022/08/28 12:11:39;;;;;;;9.93;7.82;;;26.90;99.90;;;;;;5121823;27;20039;-72
2022/08/28 12:14:30;;;;;;;11.98;7.28;;;26.90;99.90;;;;;;5123412;27;20126;-73
2022/08/28 12:16:57;;;;;;;9.82;7.35;;;27.00;99.90;;;;;;5113323;27;20155;-73
2022/08/28 12:19:55;;;;;;;10.88;7.35;;;26.90;99.90;;;;;;5119442;27;20047;-73
2022/08/28 12:22:25;;;;;;;8.65;7.50;;;27.00;99.90;;;;;;5110680;27;20138;-72
2022/08/28 12:25:04;;;;;;;8.75;7.30;;;27.00;99.90;;;;;;5108292;27;20071;-72
2022/08/28 12:27:37;;;;;;;11.10;7.45;;;26.70;99.90;;;;;;5110939;27;20052;-72
2022/08/28 12:30:05;;;;;;;12.77;8.13;;;26.40;99.90;;;;;;5107508;27;20086;-72
2022/08/28 12:32:44;;;;;;;11.38;8.13;;;25.50;99.90;;;;;;5121783;27;20130;-72
2022/08/28 12:35:26;;;;;;;10.35;7.88;;;25.00;99.90;;;;;;5118277;27;20207;-71
2022/08/28 12:37:56;;;;;;;11.75;7.60;;;24.80;99.90;;;;;;5100435;27;20155;-73
2022/08/28 12:40:32;;;;;;;11.32;8.55;;;25.00;99.90;;;;;;5104081;27;20509;-73
2022/08/28 12:43:06;;;;;;;10.07;8.48;;;25.00;99.90;;;;;;5106115;27;20035;-72
2022/08/28 12:45:48;;;;;;;12.90;8.05;;;25.10;99.90;;;;;;5112803;27;20040;-71
2022/08/28 12:48:37;;;;;;;11.27;8.40;;;24.90;99.90;;;;;;5109030;27;20043;-71
2022/08/28 12:51:13;;;;;;;10.77;8.13;;;25.10;99.90;;;;;;5115950;27;20075;-71
2022/08/28 12:53:46;;;;;;;10.40;8.10;;;24.80;99.90;;;;;;5112756;28;20047;-70
2022/08/28 12:56:17;;;;;;;10.20;7.97;;;24.90;99.90;;;;;;5115647;27;20039;-70
2022/08/28 12:58:45;;;;;;;9.05;7.75;;;25.10;99.90;;;;;;5112246;27;20100;-72
2022/08/28 13:01:25;;;;;;;11.20;7.90;;;25.10;99.90;;;;;;5114530;28;20047;-72
2022/08/28 13:03:56;;;;;;;8.52;7.50;;;24.80;99.90;;;;;;5121747;27;20050;-73
2022/08/28 13:06:26;;;;;;;10.18;7.65;;;24.90;99.90;;;;;;5109809;28;20035;-73
2022/08/28 13:09:24;;;;;;;10.40;8.02;;;25.10;99.90;;;;;;5116267;28;20043;-74
2022/08/28 13:11:53;;;;;;;9.10;8.13;;;24.80;99.90;;;;;;5113560;28;20486;-72